createdAt,value
2022-10-18T00:00:59.190Z,99684.75
2022-10-18T00:03:26.369Z,99690.34
2022-10-18T00:05:53.953Z,99688.22
2022-10-18T00:08:21.524Z,99694.22
2022-10-18T00:10:49.095Z,99686.28
2022-10-18T00:13:16.454Z,99695.06
2022-10-18T00:15:59.430Z,99696.66
2022-10-18T00:18:27.643Z,99690.34
2022-10-18T00:21:06.403Z,99697.09
2022-10-18T00:23:35.104Z,99707.81
2022-10-18T00:26:26.748Z,99707.59
2022-10-18T00:29:02.392Z,99704.25
2022-10-18T00:31:36.993Z,99705.84
2022-10-18T00:34:12.430Z,99699.03
2022-10-18T00:36:39.732Z,99703.09
2022-10-18T00:39:09.364Z,99706.06
2022-10-18T00:41:38.063Z,99707.25
2022-10-18T00:44:27.267Z,99706.97
2022-10-18T00:47:01.642Z,99698.31
2022-10-18T00:49:37.847Z,99699.09
2022-10-18T00:52:24.406Z,99704.63
2022-10-18T00:54:53.144Z,99703.09
2022-10-18T00:57:20.877Z,99706.59
2022-10-18T00:59:48.305Z,99702.03
2022-10-18T01:02:18.186Z,99701.72
2022-10-18T01:04:49.416Z,99701.16
2022-10-18T01:07:25.763Z,99693.00
2022-10-18T01:10:08.195Z,99700.59
2022-10-18T01:13:05.923Z,99702.38
2022-10-18T01:15:57.818Z,99705.41
2022-10-18T01:18:34.725Z,99697.25
2022-10-18T01:21:04.678Z,99703.66
2022-10-18T01:24:18.263Z,99705.00
2022-10-18T01:27:00.530Z,99700.00
2022-10-18T01:29:49.630Z,99699.69
2022-10-18T01:32:23.230Z,99696.44
2022-10-18T01:34:55.898Z,99693.13
2022-10-18T01:37:24.047Z,99697.69
2022-10-18T01:39:56.709Z,99696.03
2022-10-18T01:42:24.698Z,99709.59
2022-10-18T01:44:53.740Z,99706.94
2022-10-18T01:47:21.879Z,99706.00
2022-10-18T01:49:49.125Z,99697.69
2022-10-18T01:52:16.798Z,99699.63
2022-10-18T01:54:51.096Z,99695.78
2022-10-18T01:58:01.473Z,99696.50
2022-10-18T02:01:08.283Z,99692.66
2022-10-18T02:03:48.627Z,99694.09
2022-10-18T02:06:29.928Z,99679.22
2022-10-18T02:09:13.072Z,99681.09
2022-10-18T02:11:43.383Z,99692.03
2022-10-18T02:14:14.341Z,99688.66
2022-10-18T02:16:46.083Z,99689.84
2022-10-18T02:21:58.706Z,99687.22
2022-10-18T02:24:34.894Z,99687.59
2022-10-18T02:27:02.854Z,99691.28
2022-10-18T02:29:30.808Z,99683.72
2022-10-18T02:32:20.900Z,99673.38
2022-10-18T02:34:59.149Z,99673.38
2022-10-18T02:37:33.027Z,99677.25
2022-10-18T02:40:00.095Z,99682.31
2022-10-18T02:42:38.666Z,99676.72
2022-10-18T02:45:07.023Z,99674.25
2022-10-18T02:47:34.671Z,99673.56
2022-10-18T02:50:02.311Z,99674.78
2022-10-18T02:52:29.886Z,99679.34
2022-10-18T02:54:57.183Z,99679.88
2022-10-18T02:57:24.175Z,99674.19
2022-10-18T02:59:51.218Z,99674.78
2022-10-18T03:02:18.300Z,99667.59
2022-10-18T03:04:45.608Z,99671.81
2022-10-18T03:07:12.797Z,99671.38
2022-10-18T03:09:39.883Z,99665.38
2022-10-18T03:12:07.528Z,99667.94
2022-10-18T03:14:34.542Z,99676.00
2022-10-18T03:17:01.567Z,99676.56
2022-10-18T03:19:28.710Z,99669.72
2022-10-18T03:22:02.275Z,99677.44
2022-10-18T03:24:29.665Z,99681.09
2022-10-18T03:26:57.290Z,99670.41
2022-10-18T03:29:24.699Z,99675.84
2022-10-18T03:31:51.715Z,99670.38
2022-10-18T03:34:18.739Z,99683.63
2022-10-18T03:36:45.855Z,99676.72
2022-10-18T03:39:13.084Z,99669.72
2022-10-18T03:41:40.227Z,99668.84
2022-10-18T03:44:07.481Z,99672.00
2022-10-18T03:46:41.006Z,99663.41
2022-10-18T03:49:08.734Z,99669.00
2022-10-18T03:51:35.820Z,99664.06
2022-10-18T03:54:03.104Z,99669.19
2022-10-18T03:56:30.441Z,99666.09
2022-10-18T03:58:57.695Z,99668.44
2022-10-18T04:01:24.774Z,99663.28
2022-10-18T04:03:52.031Z,99668.13
2022-10-18T04:06:19.295Z,99665.03
2022-10-18T04:08:46.343Z,99670.94
2022-10-18T04:11:13.446Z,99671.09
2022-10-18T04:13:40.442Z,99673.91
2022-10-18T04:16:07.635Z,99670.22
2022-10-18T04:18:34.646Z,99668.84
2022-10-18T04:21:01.718Z,99668.91
2022-10-18T04:23:29.028Z,99672.16
2022-10-18T04:25:56.138Z,99676.97
2022-10-18T04:28:23.276Z,99677.94
2022-10-18T04:30:52.154Z,99686.09
2022-10-18T04:33:19.781Z,99683.91
2022-10-18T04:35:47.602Z,99686.19
2022-10-18T04:38:14.760Z,99696.34
2022-10-18T04:40:41.762Z,99691.63
2022-10-18T04:43:08.914Z,99687.94
2022-10-18T04:45:36.216Z,99683.03
2022-10-18T04:48:03.910Z,99690.16
2022-10-18T04:50:31.134Z,99689.03
2022-10-18T04:52:58.156Z,99695.59
2022-10-18T04:55:30.904Z,99696.22
2022-10-18T04:57:58.161Z,99689.19
2022-10-18T05:00:25.166Z,99692.88
2022-10-18T05:02:57.930Z,99695.16
2022-10-18T05:05:33.145Z,99693.31
2022-10-18T05:08:13.467Z,99696.03
2022-10-18T05:10:40.508Z,99702.25
2022-10-18T05:13:07.499Z,99686.91
2022-10-18T05:15:34.503Z,99689.16
2022-10-18T05:18:01.697Z,99688.53
2022-10-18T05:20:29.090Z,99683.75
2022-10-18T05:22:57.934Z,99683.63
2022-10-18T05:25:25.288Z,99676.88
2022-10-18T05:27:52.996Z,99664.59
2022-10-18T05:30:21.527Z,99670.03
2022-10-18T05:32:48.549Z,99683.38
2022-10-18T05:35:15.708Z,99676.88
2022-10-18T05:37:42.700Z,99678.47
2022-10-18T05:40:10.665Z,99679.00
2022-10-18T05:42:37.681Z,99682.94
2022-10-18T05:45:05.099Z,99677.94
2022-10-18T05:47:32.497Z,99679.34
2022-10-18T05:49:59.871Z,99694.09
2022-10-18T05:52:27.263Z,99697.19
2022-10-18T05:54:54.465Z,99693.44
2022-10-18T05:57:21.480Z,99692.97
2022-10-18T05:59:48.601Z,99685.19
2022-10-18T06:02:15.812Z,99694.78
2022-10-18T06:04:43.097Z,99695.75
2022-10-18T06:07:11.612Z,99685.53
2022-10-18T06:09:38.846Z,99685.75
2022-10-18T06:12:05.900Z,99687.72
2022-10-18T06:14:33.071Z,99682.28
2022-10-18T06:17:00.100Z,99689.13
2022-10-18T06:19:27.082Z,99684.66
2022-10-18T06:21:54.055Z,99692.91
2022-10-18T06:24:21.657Z,99688.44
2022-10-18T06:26:49.367Z,99693.63
2022-10-18T06:29:16.411Z,99696.84
2022-10-18T06:31:43.431Z,99701.22
2022-10-18T06:34:10.491Z,99705.09
2022-10-18T06:36:37.468Z,99704.41
2022-10-18T06:39:04.545Z,99709.78
2022-10-18T06:41:31.694Z,99707.06
2022-10-18T06:44:17.569Z,99699.38
2022-10-18T06:46:47.030Z,99702.53
2022-10-18T06:49:18.318Z,99702.47
2022-10-18T06:51:46.458Z,99705.75
2022-10-18T06:54:17.881Z,99697.31
2022-10-18T06:56:47.923Z,99711.00
2022-10-18T06:59:15.390Z,99707.13
2022-10-18T07:01:43.468Z,99710.38
2022-10-18T07:04:10.582Z,99713.63
2022-10-18T07:06:37.576Z,99716.44
2022-10-18T07:09:04.704Z,99717.44
2022-10-18T07:11:31.768Z,99719.03
2022-10-18T07:14:03.013Z,99717.56
2022-10-18T07:16:31.374Z,99713.97
2022-10-18T07:18:58.509Z,99719.44
2022-10-18T07:21:26.695Z,99712.69
2022-10-18T07:23:56.850Z,99708.41
2022-10-18T07:26:29.196Z,99704.22
2022-10-18T07:29:10.065Z,99717.75
2022-10-18T07:31:38.673Z,99721.34
2022-10-18T07:34:12.322Z,99724.34
2022-10-18T07:36:40.156Z,99720.47
2022-10-18T07:39:07.439Z,99722.00
2022-10-18T07:41:34.789Z,99718.47
2022-10-18T07:44:02.976Z,99717.34
2022-10-18T07:46:30.696Z,99715.19
2022-10-18T07:49:01.209Z,99716.44
2022-10-18T07:51:28.368Z,99718.38
2022-10-18T07:53:55.418Z,99706.56
2022-10-18T07:56:23.183Z,99726.44
2022-10-18T07:58:53.393Z,99710.75
2022-10-18T08:01:22.857Z,99711.22
2022-10-18T08:03:51.331Z,99710.56
2022-10-18T08:06:20.764Z,99713.66
2022-10-18T08:08:48.682Z,99710.34
2022-10-18T08:11:21.161Z,99709.47
2022-10-18T08:13:48.669Z,99715.56
2022-10-18T08:16:25.531Z,99715.50
2022-10-18T08:18:54.351Z,99724.66
2022-10-18T08:21:21.824Z,99725.00
2022-10-18T08:23:55.730Z,99727.75
2022-10-18T08:26:24.275Z,99729.28
2022-10-18T08:29:10.202Z,99724.69
2022-10-18T08:31:37.637Z,99738.91
2022-10-18T08:34:04.804Z,99732.94
2022-10-18T08:36:31.973Z,99736.56
2022-10-18T08:38:59.122Z,99730.88
2022-10-18T08:41:38.178Z,99730.50
2022-10-18T08:44:23.003Z,99728.53
2022-10-18T08:47:02.958Z,99728.72
2022-10-18T08:49:38.341Z,99719.38
2022-10-18T08:52:29.848Z,99721.97
2022-10-18T08:55:36.550Z,99722.19
2022-10-18T08:58:24.831Z,99729.47
2022-10-18T09:01:20.018Z,99729.50
2022-10-18T09:04:08.909Z,99729.44
2022-10-18T09:06:47.006Z,99735.56
2022-10-18T09:09:44.946Z,99726.56
2022-10-18T09:12:36.067Z,99717.44
2022-10-18T09:15:33.643Z,99724.44
2022-10-18T09:18:19.422Z,99725.41
2022-10-18T09:20:54.228Z,99731.00
2022-10-18T09:23:35.470Z,99729.13
2022-10-18T09:26:25.464Z,99729.56
2022-10-18T09:29:30.320Z,99735.09
2022-10-18T09:32:57.313Z,99730.97
2022-10-18T09:35:42.167Z,99731.41
2022-10-18T09:38:18.332Z,99728.00
2022-10-18T09:41:13.685Z,99721.97
2022-10-18T09:43:58.406Z,99718.75
2022-10-18T09:46:32.348Z,99720.81
2022-10-18T09:49:25.452Z,99720.94
2022-10-18T09:51:54.073Z,99730.19
2022-10-18T09:54:38.110Z,99726.53
2022-10-18T09:57:24.061Z,99725.84
2022-10-18T09:59:51.205Z,99723.00
2022-10-18T10:02:24.399Z,99725.63
2022-10-18T10:04:54.216Z,99727.88
2022-10-18T10:07:34.926Z,99726.31
2022-10-18T10:10:22.206Z,99733.69
2022-10-18T10:13:14.569Z,99735.53
2022-10-18T10:15:52.625Z,99727.59
2022-10-18T10:18:23.499Z,99734.09
2022-10-18T10:20:57.478Z,99733.78
2022-10-18T10:23:33.764Z,99729.63
2022-10-18T10:26:28.632Z,99726.75
2022-10-18T10:28:56.141Z,99720.06
2022-10-18T10:31:31.207Z,99727.03
2022-10-18T10:34:01.891Z,99720.25
2022-10-18T10:36:31.978Z,99723.88
2022-10-18T10:39:19.089Z,99722.03
2022-10-18T10:41:59.124Z,99725.69
2022-10-18T10:44:31.055Z,99722.91
2022-10-18T10:46:59.533Z,99724.72
2022-10-18T10:49:45.564Z,99739.69
2022-10-18T10:52:29.598Z,99727.50
2022-10-18T10:55:16.935Z,99726.88
2022-10-18T10:57:48.964Z,99717.97
2022-10-18T11:00:43.246Z,99723.91
2022-10-18T11:03:29.037Z,99721.84
2022-10-18T11:06:01.752Z,99727.56
2022-10-18T11:08:39.035Z,99723.59
2022-10-18T11:11:28.429Z,99728.31
2022-10-18T11:14:26.608Z,99721.53
2022-10-18T11:17:11.027Z,99727.59
2022-10-18T11:20:23.308Z,99723.25
2022-10-18T11:22:56.472Z,99727.94
2022-10-18T11:25:29.515Z,99719.13
2022-10-18T11:28:25.973Z,99721.44
2022-10-18T11:31:32.808Z,99718.53
2022-10-18T11:34:23.023Z,99721.75
2022-10-18T11:37:27.135Z,99722.84
2022-10-18T11:40:25.819Z,99721.69
2022-10-18T11:43:00.094Z,99720.75
2022-10-18T11:45:50.044Z,99709.09
2022-10-18T11:48:47.890Z,99708.41
2022-10-18T11:52:07.915Z,99711.28
2022-10-18T11:54:45.984Z,99710.81
2022-10-18T11:57:24.103Z,99704.06
2022-10-18T12:00:39.617Z,99710.31
2022-10-18T12:03:49.998Z,99715.63
2022-10-18T12:06:22.583Z,99713.31
2022-10-18T12:09:00.031Z,99708.75
2022-10-18T12:11:32.630Z,99711.19
2022-10-18T12:14:05.263Z,99704.75
2022-10-18T12:16:50.982Z,99707.97
2022-10-18T12:19:27.091Z,99700.00
2022-10-18T12:22:10.432Z,99698.13
2022-10-18T12:24:37.743Z,99701.28
2022-10-18T12:27:05.153Z,99698.31
2022-10-18T12:29:51.623Z,99697.97
2022-10-18T12:32:30.282Z,99690.16
2022-10-18T12:35:13.129Z,99691.81
2022-10-18T12:38:30.892Z,99693.69
2022-10-18T12:40:59.241Z,99689.63
2022-10-18T12:43:34.107Z,99677.44
2022-10-18T12:46:05.155Z,99670.69
2022-10-18T12:48:39.078Z,99673.28
2022-10-18T12:51:17.287Z,99674.56
2022-10-18T12:53:47.933Z,99673.56
2022-10-18T12:56:27.561Z,99669.19
2022-10-18T12:59:13.967Z,99685.91
2022-10-18T13:01:53.376Z,99683.97
2022-10-18T13:04:43.618Z,99685.41
2022-10-18T13:07:21.567Z,99682.75
2022-10-18T13:10:33.463Z,99673.31
2022-10-18T13:13:38.689Z,99682.91
2022-10-18T13:16:35.992Z,99683.84
2022-10-18T13:19:30.911Z,99688.53
2022-10-18T13:22:41.322Z,99680.16
2022-10-18T13:25:23.570Z,99677.97
2022-10-18T13:28:25.804Z,99688.19
2022-10-18T13:31:27.480Z,99692.69
2022-10-18T13:33:56.979Z,99689.38
2022-10-18T13:36:30.640Z,99682.81
2022-10-18T13:38:57.686Z,99682.81
2022-10-18T13:41:35.659Z,99687.50
2022-10-18T13:44:43.523Z,99680.25
2022-10-18T13:47:33.027Z,99680.41
2022-10-18T13:53:21.418Z,99690.91
2022-10-18T13:56:01.270Z,99689.63
2022-10-18T13:58:48.823Z,99683.72
2022-10-18T14:01:55.394Z,99690.09
2022-10-18T14:05:10.895Z,99693.63
2022-10-18T14:07:49.088Z,99687.19
2022-10-18T14:10:43.833Z,99702.25
2022-10-18T14:13:24.985Z,99679.84
2022-10-18T14:15:59.232Z,99691.19
2022-10-18T14:18:33.053Z,99693.00
2022-10-18T14:21:22.009Z,99690.50
2022-10-18T14:23:51.049Z,99684.69
2022-10-18T14:26:22.844Z,99698.09
2022-10-18T14:29:07.782Z,99697.09
2022-10-18T14:31:35.167Z,99691.13
2022-10-18T14:34:03.479Z,99698.19
2022-10-18T14:36:40.740Z,99695.88
2022-10-18T14:39:20.144Z,99700.97
2022-10-18T14:41:51.361Z,99698.81
2022-10-18T14:44:28.459Z,99697.78
2022-10-18T14:47:00.436Z,99689.47
2022-10-18T14:49:28.679Z,99698.13
2022-10-18T14:51:59.624Z,99700.59
2022-10-18T14:54:36.948Z,99694.88
2022-10-18T14:57:06.175Z,99705.47
2022-10-18T14:59:51.860Z,99695.94
2022-10-18T15:02:28.744Z,99703.88
2022-10-18T15:05:01.363Z,99698.38
2022-10-18T15:07:29.378Z,99695.56
2022-10-18T15:09:59.763Z,99696.69
2022-10-18T15:12:33.925Z,99695.88
2022-10-18T15:15:27.926Z,99697.91
2022-10-18T15:17:55.613Z,99700.91
2022-10-18T15:20:31.464Z,99685.22
2022-10-18T15:23:32.656Z,99691.69
2022-10-18T15:26:05.108Z,99701.94
2022-10-18T15:28:53.932Z,99686.66
2022-10-18T15:31:27.370Z,99693.44
2022-10-18T15:34:15.802Z,99686.16
2022-10-18T15:39:24.123Z,99702.91
2022-10-18T15:42:03.576Z,99694.84
2022-10-18T15:44:48.958Z,99690.66
2022-10-18T15:47:24.156Z,99700.06
2022-10-18T15:50:00.258Z,99689.91
2022-10-18T15:52:38.659Z,99694.44
2022-10-18T15:55:30.961Z,99701.41
2022-10-18T15:58:05.993Z,99693.72
2022-10-18T16:00:33.019Z,99689.50
2022-10-18T16:03:00.136Z,99692.25
2022-10-18T16:05:27.580Z,99695.19
2022-10-18T16:07:54.990Z,99691.97
2022-10-18T16:10:22.181Z,99688.47
2022-10-18T16:12:49.491Z,99696.63
2022-10-18T16:15:16.731Z,99703.28
2022-10-18T16:17:43.791Z,99701.69
2022-10-18T16:20:26.783Z,99700.94
2022-10-18T16:22:53.827Z,99696.56
2022-10-18T16:25:20.951Z,99702.91
2022-10-18T16:27:47.994Z,99702.91
2022-10-18T16:30:20.106Z,99712.59
2022-10-18T16:32:48.803Z,99704.13
2022-10-18T16:35:15.933Z,99702.22
2022-10-18T16:37:43.270Z,99706.00
2022-10-18T16:40:24.117Z,99719.00
2022-10-18T16:42:51.707Z,99715.38
2022-10-18T16:45:19.163Z,99715.50
2022-10-18T16:47:46.515Z,99712.53
2022-10-18T16:50:19.310Z,99718.84
2022-10-18T16:52:46.328Z,99724.28
2022-10-18T16:55:21.260Z,99723.97
2022-10-18T16:57:50.250Z,99733.84
2022-10-18T17:00:22.662Z,99732.38
2022-10-18T17:02:50.277Z,99738.88
2022-10-18T17:05:18.796Z,99741.84
2022-10-18T17:07:47.275Z,99746.50
2022-10-18T17:10:19.733Z,99744.59
2022-10-18T17:12:46.861Z,99749.09
2022-10-18T17:15:13.845Z,99742.19
2022-10-18T17:17:41.155Z,99757.44
2022-10-18T17:20:09.398Z,99756.84
2022-10-18T17:22:36.478Z,99756.94
2022-10-18T17:25:03.821Z,99756.66
2022-10-18T17:27:31.349Z,99753.97
2022-10-18T17:29:58.845Z,99755.97
2022-10-18T17:32:25.901Z,99755.50
2022-10-18T17:34:52.949Z,99756.38
2022-10-18T17:37:19.930Z,99757.00
2022-10-18T17:39:47.101Z,99767.25
2022-10-18T17:42:14.270Z,99767.38
2022-10-18T17:44:43.123Z,99761.91
2022-10-18T17:47:10.188Z,99764.28
2022-10-18T17:49:37.230Z,99764.53
2022-10-18T17:52:06.983Z,99766.03
2022-10-18T17:54:34.192Z,99762.13
2022-10-18T17:57:01.213Z,99767.91
2022-10-18T17:59:28.796Z,99768.00
2022-10-18T18:01:55.911Z,99768.13
2022-10-18T18:04:24.078Z,99783.19
2022-10-18T18:06:52.761Z,99786.44
2022-10-18T18:09:20.819Z,99781.44
2022-10-18T18:11:48.809Z,99781.44
2022-10-18T18:14:16.112Z,99787.16
2022-10-18T18:16:46.043Z,99787.09
2022-10-18T18:19:14.469Z,99777.88
2022-10-18T18:21:42.784Z,99779.47
2022-10-18T18:24:10.967Z,99785.97
2022-10-18T18:26:39.287Z,99784.06
2022-10-18T18:29:07.090Z,99784.13
2022-10-18T18:31:38.893Z,99783.88
2022-10-18T18:34:09.881Z,99780.25
2022-10-18T18:36:37.203Z,99778.72
2022-10-18T18:39:09.114Z,99783.38
2022-10-18T18:41:37.715Z,99777.84
2022-10-18T18:44:06.198Z,99777.59
2022-10-18T18:46:41.010Z,99774.97
2022-10-18T18:49:08.435Z,99774.84
2022-10-18T18:51:39.620Z,99767.75
2022-10-18T18:54:08.275Z,99776.22
2022-10-18T18:56:36.489Z,99772.06
2022-10-18T18:59:04.918Z,99780.50
2022-10-18T19:01:36.368Z,99777.91
2022-10-18T19:04:07.517Z,99772.03
2022-10-18T19:06:37.130Z,99771.59
2022-10-18T19:09:19.490Z,99776.22
2022-10-18T19:11:49.866Z,99777.19
2022-10-18T19:14:17.067Z,99779.09
2022-10-18T19:16:53.799Z,99785.28
2022-10-18T19:19:26.327Z,99780.25
2022-10-18T19:21:56.860Z,99781.78
2022-10-18T19:24:27.480Z,99773.28
2022-10-18T19:26:58.333Z,99775.56
2022-10-18T19:29:32.035Z,99779.34
2022-10-18T19:32:02.776Z,99770.22
2022-10-18T19:34:31.576Z,99772.28
2022-10-18T19:36:58.716Z,99772.47
2022-10-18T19:39:35.130Z,99771.03
2022-10-18T19:42:06.407Z,99777.13
2022-10-18T19:44:36.044Z,99775.88
2022-10-18T19:47:05.637Z,99778.38
2022-10-18T19:49:33.053Z,99779.13
2022-10-18T19:52:00.087Z,99773.66
2022-10-18T19:54:27.575Z,99773.22
2022-10-18T19:56:55.131Z,99777.59
2022-10-18T19:59:28.358Z,99779.09
2022-10-18T20:01:55.802Z,99787.13
2022-10-18T20:04:23.012Z,99779.09
2022-10-18T20:06:50.594Z,99782.00
2022-10-18T20:09:20.647Z,99782.69
2022-10-18T20:11:47.999Z,99784.00
2022-10-18T20:14:15.032Z,99780.00
2022-10-18T20:16:45.193Z,99786.16
2022-10-18T20:19:12.443Z,99774.75
2022-10-18T20:21:40.130Z,99778.88
2022-10-18T20:24:09.278Z,99788.25
2022-10-18T20:26:36.376Z,99791.41
2022-10-18T20:29:04.656Z,99788.09
2022-10-18T20:31:35.567Z,99800.09
2022-10-18T20:34:11.446Z,99790.53
2022-10-18T20:36:40.481Z,99789.94
2022-10-18T20:39:07.859Z,99791.25
2022-10-18T20:41:41.137Z,99786.66
2022-10-18T20:44:14.550Z,99786.25
2022-10-18T20:46:43.834Z,99782.06
2022-10-18T20:49:16.105Z,99786.63
2022-10-18T20:51:43.227Z,99784.19
2022-10-18T20:54:10.933Z,99788.97
2022-10-18T20:56:38.995Z,99783.69
2022-10-18T20:59:09.499Z,99786.13
2022-10-18T21:01:38.866Z,99786.25
2022-10-18T21:04:09.273Z,99779.44
2022-10-18T21:06:43.867Z,99774.16
2022-10-18T21:09:15.149Z,99767.72
2022-10-18T21:11:45.183Z,99772.59
2022-10-18T21:14:20.285Z,99773.56
2022-10-18T21:16:49.718Z,99772.78
2022-10-18T21:19:26.415Z,99778.44
2022-10-18T21:21:56.736Z,99777.25
2022-10-18T21:24:26.310Z,99777.91
2022-10-18T21:26:54.658Z,99770.88
2022-10-18T21:29:24.517Z,99772.13
2022-10-18T21:31:58.005Z,99770.81
2022-10-18T21:34:26.266Z,99774.28
2022-10-18T21:36:53.423Z,99760.72
2022-10-18T21:41:51.802Z,99768.53
2022-10-18T21:44:19.588Z,99764.81
2022-10-18T21:46:47.395Z,99763.47
2022-10-18T21:49:16.028Z,99764.09
2022-10-18T21:51:43.862Z,99761.13
2022-10-18T21:54:16.053Z,99767.97
2022-10-18T21:56:43.997Z,99750.13
2022-10-18T21:59:13.008Z,99753.72
2022-10-18T22:01:40.634Z,99747.06
2022-10-18T22:04:21.780Z,99747.06
2022-10-18T22:06:49.444Z,99737.31
2022-10-18T22:09:16.863Z,99746.56
2022-10-18T22:11:49.272Z,99737.31
2022-10-18T22:14:17.026Z,99742.00
2022-10-18T22:16:44.758Z,99744.44
2022-10-18T22:19:13.010Z,99748.16
2022-10-18T22:21:40.338Z,99736.66
2022-10-18T22:24:09.148Z,99741.31
2022-10-18T22:26:39.813Z,99736.69
2022-10-18T22:29:14.495Z,99733.78
2022-10-18T22:31:46.123Z,99748.19
2022-10-18T22:34:20.466Z,99735.53
2022-10-18T22:36:50.724Z,99737.09
2022-10-18T22:39:17.966Z,99743.34
2022-10-18T22:41:46.600Z,99744.31
2022-10-18T22:44:16.376Z,99733.78
2022-10-18T22:46:44.366Z,99738.34
2022-10-18T22:49:12.046Z,99741.16
2022-10-18T22:51:39.685Z,99741.84
2022-10-18T22:54:06.696Z,99746.81
2022-10-18T22:56:35.298Z,99741.63
2022-10-18T22:59:02.633Z,99743.41
2022-10-18T23:01:29.807Z,99738.13
2022-10-18T23:04:00.199Z,99738.78
2022-10-18T23:06:36.274Z,99738.13
2022-10-18T23:09:08.473Z,99730.22
2022-10-18T23:11:37.498Z,99732.53
2022-10-18T23:14:07.337Z,99729.69
2022-10-18T23:16:35.526Z,99721.06
2022-10-18T23:19:03.073Z,99724.41
2022-10-18T23:21:30.110Z,99718.25
2022-10-18T23:23:57.827Z,99721.06
2022-10-18T23:26:27.601Z,99714.19
2022-10-18T23:28:55.290Z,99709.81
2022-10-18T23:31:29.512Z,99716.47
2022-10-18T23:34:01.161Z,99716.47
2022-10-18T23:36:28.474Z,99712.09
2022-10-18T23:38:56.274Z,99718.50
2022-10-18T23:41:23.943Z,99721.06
2022-10-18T23:43:51.885Z,99722.72
2022-10-18T23:46:19.774Z,99712.19
2022-10-18T23:48:47.635Z,99719.47
2022-10-18T23:51:15.691Z,99717.59
2022-10-18T23:53:42.899Z,99717.75
2022-10-18T23:56:13.867Z,99717.69
2022-10-18T23:58:42.196Z,99722.22
